This is the latest recevied weather packets stored in our database for station/object W8BS. If no packets are shown the sender has not sent any weather packets the latest 1 day(s).
| Time | Temp. | Humidity | Pressure | Rain* | Wind** | Luminosity | Snow |
|---|---|---|---|---|---|---|---|
| 1778057684 | 14.44° C | 84% | 1007.8 hPa | 0 mm | - | 0 W/m² | - |
| 1778056168 | 15.56° C | 77% | 1008 hPa | 0 mm | - | 0 W/m² | - |
| 1778055560 | 15.56° C | 74% | 1008.1 hPa | 0 mm | - | 0 W/m² | - |
| 1778055260 | 16.11° C | 71% | 1008.2 hPa | 0 mm | - | 0 W/m² | - |
| 1778054956 | 16.11° C | 70% | 1008 hPa | 0 mm | - | 0 W/m² | - |
| 1778054653 | 16.67° C | 69% | 1008.1 hPa | 0 mm | - | 0 W/m² | - |
| 1778054351 | 17.78° C | 64% | 1008 hPa | 0 mm | - | 0 W/m² | - |
| 1778053745 | 18.33° C | 58% | 1008 hPa | 0 mm | - | 0 W/m² | - |
| 1778052837 | 17.78° C | 58% | 1007.9 hPa | 0 mm | - | 0 W/m² | - |
| 1778052534 | 17.78° C | 57% | 1007.8 hPa | 0 mm | - | 0 W/m² | - |
| 1778051929 | 18.33° C | 57% | 1007.7 hPa | 0 mm | - | 0 W/m² | - |
| 1778051021 | 18.33° C | 56% | 1007.8 hPa | 0 mm | - | 0 W/m² | - |
| 1778050718 | 18.33° C | 56% | 1007.7 hPa | 0 mm | - | 0 W/m² | - |
| 1778050112 | 17.78° C | 57% | 1007.5 hPa | 0 mm | - | 0 W/m² | - |
| 1778049807 | 17.78° C | 60% | 1007.7 hPa | 0 mm | - | 0 W/m² | - |
| 1778049505 | 17.78° C | 56% | 1007.9 hPa | 0 mm | - | 0 W/m² | - |
| 1778048901 | 17.78° C | 60% | 1008.1 hPa | 0 mm | - | 0 W/m² | - |
| 1778048598 | 17.22° C | 61% | 1008.2 hPa | 0 mm | - | 0 W/m² | - |
| 1778048294 | 17.22° C | 61% | 1008 hPa | 0 mm | - | 0 W/m² | - |
| 1778047689 | 17.22° C | 60% | 1008.2 hPa | 0 mm | - | 0 W/m² | - |
| 1778047387 | 17.22° C | 60% | 1008.1 hPa | 0 mm | - | 0 W/m² | - |
| 1778047083 | 17.22° C | 60% | 1008.3 hPa | 0 mm | - | 0 W/m² | - |
| 1778046477 | 17.22° C | 59% | 1008.7 hPa | 0 mm | - | 0 W/m² | - |
| 1778046174 | 17.22° C | 59% | 1009 hPa | 0 mm | - | 0 W/m² | - |
| 1778045569 | 17.22° C | 60% | 1008.8 hPa | 0 mm | - | 0 W/m² | - |
* Rain latest hour (hover to see other rain measurements)
** Current wind speed in m/s (hover to see current wind gust speed)